createdAt,value
2019-06-15T00:03:09.462Z,10
2019-06-15T00:13:14.369Z,10
2019-06-15T00:18:16.783Z,11
2019-06-15T00:23:19.221Z,11
2019-06-15T00:28:21.660Z,11
2019-06-15T00:33:24.162Z,11
2019-06-15T00:38:26.710Z,11
2019-06-15T00:48:31.469Z,12
2019-06-15T00:53:33.869Z,11
2019-06-15T00:58:36.331Z,12
2019-06-15T01:03:38.781Z,12
2019-06-15T01:08:41.272Z,12
2019-06-15T01:13:43.678Z,13
2019-06-15T01:18:46.083Z,12
2019-06-15T01:23:48.528Z,12
2019-06-15T01:28:51.034Z,12
2019-06-15T01:33:53.433Z,13
2019-06-15T01:38:55.852Z,14
2019-06-15T01:43:58.285Z,14
2019-06-15T01:49:00.741Z,14
2019-06-15T01:54:03.382Z,14
2019-06-15T01:59:05.648Z,14
2019-06-15T02:04:08.051Z,14
2019-06-15T02:09:10.557Z,13
2019-06-15T02:14:12.960Z,14
2019-06-15T02:19:15.375Z,15
2019-06-15T02:24:17.809Z,15
2019-06-15T02:29:20.291Z,16
2019-06-15T02:34:22.736Z,16
2019-06-15T02:39:25.163Z,17
2019-06-15T02:44:27.603Z,16
2019-06-15T02:49:30.016Z,16
2019-06-15T02:54:32.584Z,17
2019-06-15T02:59:34.912Z,16
2019-06-15T03:04:37.447Z,16
2019-06-15T03:09:39.786Z,17
2019-06-15T03:14:42.334Z,17
2019-06-15T03:19:44.738Z,18
2019-06-15T03:24:47.157Z,18
2019-06-15T03:29:49.577Z,18
2019-06-15T03:34:52.005Z,17
2019-06-15T03:39:54.508Z,18
2019-06-15T03:44:56.907Z,18
2019-06-15T03:55:01.850Z,19
2019-06-15T04:00:04.225Z,19
2019-06-15T04:05:06.682Z,19
2019-06-15T04:10:09.105Z,19
2019-06-15T04:15:11.529Z,19
2019-06-15T04:20:14.110Z,19
2019-06-15T04:25:16.434Z,19
2019-06-15T04:30:18.882Z,19
2019-06-15T04:35:21.288Z,19
2019-06-15T04:45:26.205Z,19
2019-06-15T04:50:28.656Z,18
2019-06-15T04:55:31.195Z,19
2019-06-15T05:00:34.215Z,20
2019-06-15T05:05:36.021Z,19
2019-06-15T05:10:38.400Z,18
2019-06-15T05:15:40.829Z,18
2019-06-15T05:20:43.271Z,20
2019-06-15T05:25:45.714Z,20
2019-06-15T05:30:48.231Z,20
2019-06-15T05:35:50.598Z,22
2019-06-15T05:40:53.048Z,21
2019-06-15T05:45:55.511Z,21
2019-06-15T05:50:58.646Z,22
2019-06-15T05:56:00.424Z,23
2019-06-15T06:01:02.922Z,23
2019-06-15T06:06:05.270Z,25
2019-06-15T06:11:07.930Z,26
2019-06-15T06:16:10.133Z,26
2019-06-15T06:21:12.589Z,27
2019-06-15T06:26:15.027Z,27
2019-06-15T06:31:17.464Z,28
2019-06-15T06:36:19.945Z,27
2019-06-15T06:41:22.445Z,26
2019-06-15T06:46:24.785Z,28
2019-06-15T06:51:27.365Z,27
2019-06-15T06:56:29.672Z,28
2019-06-15T07:01:32.257Z,27
2019-06-15T07:06:34.541Z,27
2019-06-15T07:11:37.197Z,27
2019-06-15T07:16:39.444Z,26
2019-06-15T07:21:41.947Z,26
2019-06-15T07:26:44.335Z,24
2019-06-15T07:31:46.815Z,24
2019-06-15T07:36:49.393Z,23
2019-06-15T07:46:54.230Z,23
2019-06-15T07:51:56.746Z,22
2019-06-15T07:56:58.967Z,21
2019-06-15T08:02:03.731Z,20
2019-06-15T08:07:03.856Z,20
2019-06-15T08:12:06.306Z,19
2019-06-15T08:17:08.795Z,19
2019-06-15T08:22:11.222Z,18
2019-06-15T08:27:13.627Z,19
2019-06-15T08:32:16.076Z,11
2019-06-15T08:37:18.576Z,7
2019-06-15T08:42:20.987Z,9
2019-06-15T08:47:23.409Z,9
2019-06-15T08:52:25.838Z,6
2019-06-15T09:02:30.711Z,7
2019-06-15T09:07:33.177Z,7
2019-06-15T09:12:35.616Z,6
2019-06-15T09:17:38.043Z,5
2019-06-15T09:22:40.480Z,5
2019-06-15T09:27:42.999Z,5
2019-06-15T09:37:47.795Z,5
2019-06-15T09:42:50.227Z,5
2019-06-15T09:47:52.692Z,4
2019-06-15T09:52:55.182Z,4
2019-06-15T09:57:57.729Z,4
2019-06-15T10:03:00.078Z,4
2019-06-15T10:08:02.473Z,5
2019-06-15T10:13:05.019Z,5
2019-06-15T10:18:07.475Z,5
2019-06-15T10:23:09.847Z,5
2019-06-15T10:28:12.278Z,5
2019-06-15T10:33:14.731Z,4
2019-06-15T10:38:17.143Z,4
2019-06-15T10:43:19.546Z,4
2019-06-15T10:48:21.994Z,4
2019-06-15T10:53:24.446Z,4
2019-06-15T10:58:26.957Z,4
2019-06-15T11:03:29.305Z,4
2019-06-15T11:08:31.819Z,4
2019-06-15T11:13:34.215Z,4
2019-06-15T11:18:36.683Z,5
2019-06-15T11:23:39.094Z,4
2019-06-15T11:28:41.581Z,4
2019-06-15T11:33:43.959Z,4
2019-06-15T11:38:46.419Z,4
2019-06-15T11:43:48.961Z,5
2019-06-15T11:48:51.353Z,5
2019-06-15T11:53:53.755Z,4
2019-06-15T11:58:56.179Z,3
2019-06-15T12:03:58.666Z,4
2019-06-15T12:09:01.087Z,3
2019-06-15T12:14:03.541Z,3
2019-06-15T12:19:05.996Z,2
2019-06-15T12:24:08.391Z,3
2019-06-15T12:29:10.854Z,2
2019-06-15T12:34:13.263Z,3
2019-06-15T12:39:16.055Z,2
2019-06-15T12:44:18.154Z,2
2019-06-15T12:49:20.657Z,2
2019-06-15T12:54:23.117Z,2
2019-06-15T12:59:25.512Z,2
2019-06-15T13:04:29.751Z,2
2019-06-15T13:09:30.392Z,2
2019-06-15T13:14:32.833Z,2
2019-06-15T13:19:35.292Z,2
2019-06-15T13:24:37.982Z,1
2019-06-15T13:29:40.240Z,2
2019-06-15T13:34:42.586Z,2
2019-06-15T13:39:45.021Z,2
2019-06-15T13:44:47.494Z,2
2019-06-15T13:49:49.913Z,2
2019-06-15T13:54:52.511Z,2
2019-06-15T13:59:54.797Z,2
2019-06-15T14:04:57.328Z,2
2019-06-15T14:09:59.724Z,2
2019-06-15T14:15:02.137Z,2
2019-06-15T14:20:04.590Z,2
2019-06-15T14:25:07.031Z,2
2019-06-15T14:30:09.570Z,2
2019-06-15T14:35:11.918Z,2
2019-06-15T14:40:14.358Z,2
2019-06-15T14:45:16.784Z,2
2019-06-15T14:50:19.228Z,2
2019-06-15T14:55:21.877Z,2
2019-06-15T15:00:24.200Z,2
2019-06-15T15:05:27.310Z,2
2019-06-15T15:10:29.190Z,2
2019-06-15T15:15:31.447Z,2
2019-06-15T15:20:33.906Z,1
2019-06-15T15:25:36.990Z,2
2019-06-15T15:30:38.814Z,1
2019-06-15T15:35:41.213Z,2
2019-06-15T15:40:43.665Z,2
2019-06-15T15:45:46.187Z,1
2019-06-15T15:50:48.530Z,1
2019-06-15T15:55:51.023Z,2
2019-06-15T16:00:53.404Z,1
2019-06-15T16:05:56.154Z,1
2019-06-15T16:10:58.396Z,1
2019-06-15T16:16:00.749Z,2
2019-06-15T16:21:03.177Z,1
2019-06-15T16:26:05.635Z,1
2019-06-15T16:31:13.075Z,1
2019-06-15T16:36:10.535Z,1
2019-06-15T16:41:12.942Z,1
2019-06-15T16:46:17.156Z,1
2019-06-15T16:51:17.957Z,1
2019-06-15T16:56:20.288Z,1
2019-06-15T17:01:22.712Z,1
2019-06-15T17:06:26.830Z,1
2019-06-15T17:11:27.629Z,1
2019-06-15T17:16:30.144Z,2
2019-06-15T17:21:32.495Z,1
2019-06-15T17:26:36.460Z,1
2019-06-15T17:31:37.641Z,1
2019-06-15T17:36:39.805Z,1
2019-06-15T17:41:42.270Z,1
2019-06-15T17:46:46.350Z,1
2019-06-15T17:51:47.141Z,1
2019-06-15T17:56:49.575Z,1
2019-06-15T18:01:52.013Z,1
2019-06-15T18:06:56.737Z,1
2019-06-15T18:11:57.177Z,1
2019-06-15T18:16:59.430Z,2
2019-06-15T18:22:01.805Z,1
2019-06-15T18:27:06.965Z,1
2019-06-15T18:32:06.660Z,2
2019-06-15T18:37:09.165Z,1
2019-06-15T18:42:11.537Z,2
2019-06-15T18:47:16.294Z,2
2019-06-15T18:52:17.044Z,1
2019-06-15T18:57:18.865Z,2
2019-06-15T19:02:21.355Z,1
2019-06-15T19:07:23.770Z,2
2019-06-15T19:12:26.464Z,2
2019-06-15T19:17:28.632Z,1
2019-06-15T19:22:31.150Z,1
2019-06-15T19:27:33.501Z,1
2019-06-15T19:32:36.776Z,1
2019-06-15T19:37:38.603Z,1
2019-06-15T19:42:40.836Z,1
2019-06-15T19:47:43.322Z,1
2019-06-15T19:52:46.184Z,1
2019-06-15T19:57:48.241Z,1
2019-06-15T20:02:50.601Z,1
2019-06-15T20:07:53.068Z,1
2019-06-15T20:12:56.197Z,1
2019-06-15T20:17:57.926Z,1
2019-06-15T20:23:00.374Z,1
2019-06-15T20:28:02.837Z,1
2019-06-15T20:33:07.517Z,1
2019-06-15T20:38:08.002Z,1
2019-06-15T20:43:10.162Z,1
2019-06-15T20:48:12.603Z,1
2019-06-15T20:53:16.979Z,1
2019-06-15T20:58:17.555Z,1
2019-06-15T21:03:19.925Z,1
2019-06-15T21:08:22.558Z,1
2019-06-15T21:13:26.348Z,1
2019-06-15T21:18:27.233Z,1
2019-06-15T21:23:29.674Z,1
2019-06-15T21:28:32.264Z,1
2019-06-15T21:33:36.029Z,1
2019-06-15T21:38:37.017Z,2
2019-06-15T21:43:39.479Z,1
2019-06-15T21:48:41.911Z,2
2019-06-15T21:53:46.658Z,2
2019-06-15T21:58:46.766Z,2
2019-06-15T22:03:49.208Z,3
2019-06-15T22:08:51.654Z,3
2019-06-15T22:13:54.091Z,3
2019-06-15T22:18:56.516Z,3
2019-06-15T22:23:58.987Z,3
2019-06-15T22:29:01.432Z,3
2019-06-15T22:34:06.410Z,3
2019-06-15T22:39:06.589Z,3
2019-06-15T22:44:08.738Z,3
2019-06-15T22:49:11.169Z,3
2019-06-15T22:54:13.630Z,3
2019-06-15T22:59:16.856Z,3
2019-06-15T23:04:18.618Z,3
2019-06-15T23:09:21.049Z,3
2019-06-15T23:14:23.392Z,3
2019-06-15T23:19:26.252Z,3
2019-06-15T23:24:28.279Z,3
2019-06-15T23:29:31.169Z,3
2019-06-15T23:34:33.237Z,3
2019-06-15T23:39:36.103Z,3
2019-06-15T23:44:38.019Z,3
2019-06-15T23:49:40.471Z,3
2019-06-15T23:54:42.951Z,3
2019-06-15T23:59:46.512Z,3
